sensor_id;sensor_type;location;lat;lon;timestamp;pressure;altitude;pressure_sealevel;temperature;humidity
6216;BME280;3141;49.234;9.326;2023-01-28T00:00:29;100331.66;;;5.95;60.89
6216;BME280;3141;49.234;9.326;2023-01-28T00:01:13;100333.19;;;5.98;60.92
6216;BME280;3141;49.234;9.326;2023-01-28T00:01:56;100342.66;;;6.00;60.96
6216;BME280;3141;49.234;9.326;2023-01-28T00:02:38;100342.03;;;5.97;61.04
6216;BME280;3141;49.234;9.326;2023-01-28T00:03:21;100338.22;;;6.01;60.88
6216;BME280;3141;49.234;9.326;2023-01-28T00:04:03;100340.97;;;5.99;60.67
6216;BME280;3141;49.234;9.326;2023-01-28T00:04:46;100342.66;;;6.00;61.07
6216;BME280;3141;49.234;9.326;2023-01-28T00:05:28;100342.66;;;6.00;60.92
6216;BME280;3141;49.234;9.326;2023-01-28T00:06:13;100346.44;;;5.96;60.80
6216;BME280;3141;49.234;9.326;2023-01-28T00:06:55;100340.34;;;5.96;61.23
6216;BME280;3141;49.234;9.326;2023-01-28T00:07:38;100342.66;;;6.00;61.20
6216;BME280;3141;49.234;9.326;2023-01-28T00:08:20;100342.75;;;5.99;61.04
6216;BME280;3141;49.234;9.326;2023-01-28T00:09:03;100351.47;;;5.99;61.15
6216;BME280;3141;49.234;9.326;2023-01-28T00:09:45;100350.41;;;6.02;60.41
6216;BME280;3141;49.234;9.326;2023-01-28T00:10:27;100342.97;;;5.96;60.95
6216;BME280;3141;49.234;9.326;2023-01-28T00:11:12;100354.19;;;5.98;60.85
6216;BME280;3141;49.234;9.326;2023-01-28T00:11:54;100348.31;;;5.94;60.96
6216;BME280;3141;49.234;9.326;2023-01-28T00:12:36;100352.84;;;5.92;61.12
6216;BME280;3141;49.234;9.326;2023-01-28T00:13:19;100353.34;;;5.97;61.03
6216;BME280;3141;49.234;9.326;2023-01-28T00:14:01;100349.56;;;6.01;60.96
6216;BME280;3141;49.234;9.326;2023-01-28T00:14:45;100347.91;;;6.00;60.67
6216;BME280;3141;49.234;9.326;2023-01-28T00:15:29;100352.06;;;6.03;60.77
6216;BME280;3141;49.234;9.326;2023-01-28T00:16:11;100349.56;;;6.01;60.84
6216;BME280;3141;49.234;9.326;2023-01-28T00:16:53;100342.97;;;5.96;60.90
6216;BME280;3141;49.234;9.326;2023-01-28T00:17:36;100345.19;;;5.89;61.38
6216;BME280;3141;49.234;9.326;2023-01-28T00:18:19;100346.03;;;5.90;61.30
6216;BME280;3141;49.234;9.326;2023-01-28T00:19:01;100347.28;;;5.97;61.36
6216;BME280;3141;49.234;9.326;2023-01-28T00:19:43;100341.81;;;6.00;60.99
6216;BME280;3141;49.234;9.326;2023-01-28T00:20:26;100343.59;;;5.99;60.84
6216;BME280;3141;49.234;9.326;2023-01-28T00:21:12;100340.44;;;5.94;61.66
6216;BME280;3141;49.234;9.326;2023-01-28T00:21:55;100333.81;;;6.01;61.05
6216;BME280;3141;49.234;9.326;2023-01-28T00:22:37;100344.09;;;6.04;61.34
6216;BME280;3141;49.234;9.326;2023-01-28T00:23:20;100337.81;;;5.94;61.26
6216;BME280;3141;49.234;9.326;2023-01-28T00:24:02;100338.56;;;5.96;61.32
6216;BME280;3141;49.234;9.326;2023-01-28T00:24:45;100337.41;;;6.00;61.47
6216;BME280;3141;49.234;9.326;2023-01-28T00:25:27;100331.19;;;6.01;61.10
6216;BME280;3141;49.234;9.326;2023-01-28T00:26:11;100346.09;;;6.01;61.28
6216;BME280;3141;49.234;9.326;2023-01-28T00:26:55;100339.06;;;6.01;61.03
6216;BME280;3141;49.234;9.326;2023-01-28T00:27:37;100338.75;;;6.06;61.20
6216;BME280;3141;49.234;9.326;2023-01-28T00:28:21;100336.13;;;6.06;60.94
6216;BME280;3141;49.234;9.326;2023-01-28T00:29:03;100331.47;;;6.09;61.02
6216;BME280;3141;49.234;9.326;2023-01-28T00:29:45;100339.69;;;6.05;61.06
6216;BME280;3141;49.234;9.326;2023-01-28T00:30:28;100331.78;;;5.94;61.16
6216;BME280;3141;49.234;9.326;2023-01-28T00:31:16;100332.16;;;6.00;61.04
6216;BME280;3141;49.234;9.326;2023-01-28T00:31:58;100335.72;;;5.99;61.20
6216;BME280;3141;49.234;9.326;2023-01-28T00:32:41;100339.28;;;5.98;61.40
6216;BME280;3141;49.234;9.326;2023-01-28T00:33:24;100337.59;;;5.97;61.57
6216;BME280;3141;49.234;9.326;2023-01-28T00:34:06;100340.22;;;5.97;61.70
6216;BME280;3141;49.234;9.326;2023-01-28T00:34:48;100342.53;;;6.02;61.61
6216;BME280;3141;49.234;9.326;2023-01-28T00:35:31;100341.69;;;6.01;61.28
6216;BME280;3141;49.234;9.326;2023-01-28T00:36:14;100339.91;;;6.02;61.28
6216;BME280;3141;49.234;9.326;2023-01-28T00:36:56;100344.16;;;5.92;61.07
6216;BME280;3141;49.234;9.326;2023-01-28T00:37:38;100336.41;;;5.90;61.55
6216;BME280;3141;49.234;9.326;2023-01-28T00:38:21;100343.72;;;5.85;61.74
6216;BME280;3141;49.234;9.326;2023-01-28T00:39:04;100331.16;;;5.90;62.02
6216;BME280;3141;49.234;9.326;2023-01-28T00:39:48;100342.34;;;5.92;61.69
6216;BME280;3141;49.234;9.326;2023-01-28T00:40:30;100337.59;;;5.97;61.73
6216;BME280;3141;49.234;9.326;2023-01-28T00:41:15;100332.59;;;5.94;61.85
6216;BME280;3141;49.234;9.326;2023-01-28T00:41:57;100337.09;;;5.92;61.59
6216;BME280;3141;49.234;9.326;2023-01-28T00:42:40;100335.78;;;5.87;61.71
6216;BME280;3141;49.234;9.326;2023-01-28T00:43:22;100337.81;;;5.94;61.80
6216;BME280;3141;49.234;9.326;2023-01-28T00:44:05;100330.56;;;5.98;61.83
6216;BME280;3141;49.234;9.326;2023-01-28T00:44:47;100334.97;;;5.97;61.81
6216;BME280;3141;49.234;9.326;2023-01-28T00:45:29;100334.91;;;5.99;61.86
6216;BME280;3141;49.234;9.326;2023-01-28T00:46:12;100333.25;;;5.85;61.89
6216;BME280;3141;49.234;9.326;2023-01-28T00:46:55;100335.44;;;5.78;62.94
6216;BME280;3141;49.234;9.326;2023-01-28T00:47:37;100336.28;;;5.79;62.40
6216;BME280;3141;49.234;9.326;2023-01-28T00:48:20;100338.47;;;5.85;62.33
6216;BME280;3141;49.234;9.326;2023-01-28T00:49:02;100336.72;;;5.85;62.73
6216;BME280;3141;49.234;9.326;2023-01-28T00:49:45;100335.66;;;5.88;62.38
6216;BME280;3141;49.234;9.326;2023-01-28T00:50:27;100333.84;;;5.88;62.39
6216;BME280;3141;49.234;9.326;2023-01-28T00:51:11;100331.22;;;5.88;62.50
6216;BME280;3141;49.234;9.326;2023-01-28T00:51:53;100333.66;;;5.92;62.53
6216;BME280;3141;49.234;9.326;2023-01-28T00:52:36;100332.06;;;5.89;62.79
6216;BME280;3141;49.234;9.326;2023-01-28T00:53:18;100324.22;;;5.89;62.70
6216;BME280;3141;49.234;9.326;2023-01-28T00:54:00;100331.16;;;5.90;62.60
6216;BME280;3141;49.234;9.326;2023-01-28T00:54:43;100327.78;;;5.88;62.44
6216;BME280;3141;49.234;9.326;2023-01-28T00:55:25;100325.28;;;5.87;62.73
6216;BME280;3141;49.234;9.326;2023-01-28T00:56:12;100325.91;;;5.90;62.48
6216;BME280;3141;49.234;9.326;2023-01-28T00:56:54;100323.06;;;5.93;62.41
6216;BME280;3141;49.234;9.326;2023-01-28T00:57:37;100326.41;;;5.95;62.44
6216;BME280;3141;49.234;9.326;2023-01-28T00:58:20;100322.81;;;5.96;62.53
6216;BME280;3141;49.234;9.326;2023-01-28T00:59:02;100329.97;;;5.94;62.09
6216;BME280;3141;49.234;9.326;2023-01-28T00:59:44;100327.06;;;5.86;62.07
6216;BME280;3141;49.234;9.326;2023-01-28T01:00:27;100328.41;;;5.92;61.90
6216;BME280;3141;49.234;9.326;2023-01-28T01:01:20;100336.16;;;5.93;62.39
6216;BME280;3141;49.234;9.326;2023-01-28T01:02:03;100331.16;;;5.90;62.80
6216;BME280;3141;49.234;9.326;2023-01-28T01:02:53;100333.44;;;5.95;62.68
6216;BME280;3141;49.234;9.326;2023-01-28T01:03:35;100327.94;;;5.98;62.32
6216;BME280;3141;49.234;9.326;2023-01-28T01:04:17;100329.03;;;5.95;62.25
6216;BME280;3141;49.234;9.326;2023-01-28T01:05:07;100327.34;;;5.94;62.78
6216;BME280;3141;49.234;9.326;2023-01-28T01:05:50;100327.34;;;5.94;62.66
6216;BME280;3141;49.234;9.326;2023-01-28T01:06:34;100322.31;;;5.91;62.95
6216;BME280;3141;49.234;9.326;2023-01-28T01:07:17;100329.22;;;5.92;62.71
6216;BME280;3141;49.234;9.326;2023-01-28T01:07:59;100331.78;;;5.94;62.82
6216;BME280;3141;49.234;9.326;2023-01-28T01:08:42;100332.59;;;5.94;62.70
6216;BME280;3141;49.234;9.326;2023-01-28T01:09:31;100334.59;;;5.91;62.98
6216;BME280;3141;49.234;9.326;2023-01-28T01:10:16;100324.31;;;5.88;63.14
6216;BME280;3141;49.234;9.326;2023-01-28T01:11:03;100323.34;;;5.88;63.29
6216;BME280;3141;49.234;9.326;2023-01-28T01:11:45;100322.75;;;5.85;63.35
6216;BME280;3141;49.234;9.326;2023-01-28T01:12:28;100318.34;;;5.85;63.21
6216;BME280;3141;49.234;9.326;2023-01-28T01:13:11;100326.31;;;5.84;63.24
6216;BME280;3141;49.234;9.326;2023-01-28T01:13:54;100324.56;;;5.84;63.30
6216;BME280;3141;49.234;9.326;2023-01-28T01:14:37;100327.06;;;5.86;63.46
6216;BME280;3141;49.234;9.326;2023-01-28T01:15:20;100326.31;;;5.84;63.30
6216;BME280;3141;49.234;9.326;2023-01-28T01:16:10;100322.53;;;5.88;63.31
6216;BME280;3141;49.234;9.326;2023-01-28T01:16:53;100323.47;;;5.87;63.38
6216;BME280;3141;49.234;9.326;2023-01-28T01:17:36;100324.22;;;5.89;63.40
6216;BME280;3141;49.234;9.326;2023-01-28T01:18:19;100329.47;;;5.89;63.43
6216;BME280;3141;49.234;9.326;2023-01-28T01:19:01;100329.47;;;5.89;63.41
6216;BME280;3141;49.234;9.326;2023-01-28T01:19:44;100325.91;;;5.90;63.06
6216;BME280;3141;49.234;9.326;2023-01-28T01:20:28;100327.56;;;5.91;62.87
6216;BME280;3141;49.234;9.326;2023-01-28T01:21:16;100327.78;;;5.88;63.10
6216;BME280;3141;49.234;9.326;2023-01-28T01:21:59;100329.47;;;5.89;62.92
6216;BME280;3141;49.234;9.326;2023-01-28T01:22:42;100335.16;;;5.83;62.95
6216;BME280;3141;49.234;9.326;2023-01-28T01:23:26;100331.84;;;5.92;63.51
6216;BME280;3141;49.234;9.326;2023-01-28T01:24:08;100329.84;;;5.96;63.46
6216;BME280;3141;49.234;9.326;2023-01-28T01:24:50;100328.19;;;5.95;63.11
6216;BME280;3141;49.234;9.326;2023-01-28T01:25:33;100333.44;;;5.95;63.14
6216;BME280;3141;49.234;9.326;2023-01-28T01:26:15;100331.16;;;5.90;63.70
6216;BME280;3141;49.234;9.326;2023-01-28T01:26:57;100330.31;;;5.90;63.58
6216;BME280;3141;49.234;9.326;2023-01-28T01:27:41;100335.44;;;5.91;63.25
6216;BME280;3141;49.234;9.326;2023-01-28T01:28:23;100335.44;;;5.91;63.60
6216;BME280;3141;49.234;9.326;2023-01-28T01:29:06;100330.91;;;5.93;63.70
6216;BME280;3141;49.234;9.326;2023-01-28T01:29:50;100331.78;;;5.94;63.25
6216;BME280;3141;49.234;9.326;2023-01-28T01:30:33;100333.44;;;5.95;63.60
6216;BME280;3141;49.234;9.326;2023-01-28T01:31:17;100338.19;;;5.90;63.40
6216;BME280;3141;49.234;9.326;2023-01-28T01:32:00;100327.78;;;5.88;63.56
6216;BME280;3141;49.234;9.326;2023-01-28T01:32:43;100333.03;;;5.88;63.80
6216;BME280;3141;49.234;9.326;2023-01-28T01:33:27;100329.97;;;5.94;63.82
6216;BME280;3141;49.234;9.326;2023-01-28T01:34:10;100326.09;;;5.87;64.04
6216;BME280;3141;49.234;9.326;2023-01-28T01:34:52;100338.06;;;5.91;64.06
6216;BME280;3141;49.234;9.326;2023-01-28T01:35:34;100333.25;;;5.85;63.97
6216;BME280;3141;49.234;9.326;2023-01-28T01:36:17;100331.56;;;5.84;64.41
6216;BME280;3141;49.234;9.326;2023-01-28T01:37:02;100331.78;;;5.81;64.62
6216;BME280;3141;49.234;9.326;2023-01-28T01:37:47;100332.66;;;5.69;65.15
6216;BME280;3141;49.234;9.326;2023-01-28T01:38:29;100335.25;;;5.69;64.98
6216;BME280;3141;49.234;9.326;2023-01-28T01:39:11;100334.94;;;5.73;65.60
6216;BME280;3141;49.234;9.326;2023-01-28T01:39:54;100329.06;;;5.70;65.35
6216;BME280;3141;49.234;9.326;2023-01-28T01:40:36;100337.44;;;5.75;65.57
6216;BME280;3141;49.234;9.326;2023-01-28T01:41:29;100332.66;;;5.69;65.34
6216;BME280;3141;49.234;9.326;2023-01-28T01:42:13;100338.16;;;5.77;65.01
6216;BME280;3141;49.234;9.326;2023-01-28T01:42:55;100337.94;;;5.80;64.77
6216;BME280;3141;49.234;9.326;2023-01-28T01:43:53;100341.22;;;5.83;64.82
6216;BME280;3141;49.234;9.326;2023-01-28T01:45:36;100345.19;;;5.89;65.04
6216;BME280;3141;49.234;9.326;2023-01-28T01:46:29;100333.84;;;5.88;64.93
6216;BME280;3141;49.234;9.326;2023-01-28T01:47:15;100328.59;;;5.88;64.95
6216;BME280;3141;49.234;9.326;2023-01-28T01:48:05;100337.44;;;5.88;65.04
6216;BME280;3141;49.234;9.326;2023-01-28T01:48:50;100338.28;;;5.88;64.72
6216;BME280;3141;49.234;9.326;2023-01-28T01:49:34;100333.78;;;5.90;64.93
6216;BME280;3141;49.234;9.326;2023-01-28T01:51:07;100336.41;;;5.77;65.48
6216;BME280;3141;49.234;9.326;2023-01-28T01:51:54;100333.38;;;5.71;65.78
6216;BME280;3141;49.234;9.326;2023-01-28T01:52:39;100330.44;;;5.63;65.97
6216;BME280;3141;49.234;9.326;2023-01-28T01:53:24;100329.09;;;5.57;66.13
6216;BME280;3141;49.234;9.326;2023-01-28T01:54:07;100332.25;;;5.50;66.28
6216;BME280;3141;49.234;9.326;2023-01-28T01:54:52;100335.00;;;5.48;66.20
6216;BME280;3141;49.234;9.326;2023-01-28T01:55:38;100335.00;;;5.48;66.76
6216;BME280;3141;49.234;9.326;2023-01-28T01:56:29;100337.50;;;5.50;67.06
6216;BME280;3141;49.234;9.326;2023-01-28T01:57:16;100341.50;;;5.55;66.61
6216;BME280;3141;49.234;9.326;2023-01-28T01:58:05;100337.19;;;5.54;66.64
6216;BME280;3141;49.234;9.326;2023-01-28T01:58:49;100337.06;;;5.56;66.72
6216;BME280;3141;49.234;9.326;2023-01-28T01:59:34;100336.03;;;5.58;66.54
6216;BME280;3141;49.234;9.326;2023-01-28T02:00:17;100332.66;;;5.56;66.26
6216;BME280;3141;49.234;9.326;2023-01-28T02:01:00;100336.41;;;5.65;66.34
6216;BME280;3141;49.234;9.326;2023-01-28T02:01:43;100335.38;;;5.67;66.23
6216;BME280;3141;49.234;9.326;2023-01-28T02:02:29;100333.25;;;5.72;65.78
6216;BME280;3141;49.234;9.326;2023-01-28T02:03:11;100343.75;;;5.72;66.07
6216;BME280;3141;49.234;9.326;2023-01-28T02:04:08;100335.38;;;5.67;66.06
6216;BME280;3141;49.234;9.326;2023-01-28T02:04:52;100339.03;;;5.65;66.36
6216;BME280;3141;49.234;9.326;2023-01-28T02:05:35;100341.44;;;5.68;65.85
6216;BME280;3141;49.234;9.326;2023-01-28T02:06:18;100340.41;;;5.70;66.24
6216;BME280;3141;49.234;9.326;2023-01-28T02:07:01;100345.41;;;5.73;65.73
6216;BME280;3141;49.234;9.326;2023-01-28T02:07:45;100342.38;;;5.79;65.90
6216;BME280;3141;49.234;9.326;2023-01-28T02:08:28;100345.00;;;5.79;65.38
6216;BME280;3141;49.234;9.326;2023-01-28T02:09:23;100346.16;;;5.75;66.01
6216;BME280;3141;49.234;9.326;2023-01-28T02:10:07;100347.75;;;5.78;65.68
6216;BME280;3141;49.234;9.326;2023-01-28T02:10:58;100347.50;;;5.81;65.67
6216;BME280;3141;49.234;9.326;2023-01-28T02:11:41;100342.25;;;5.81;65.75
6216;BME280;3141;49.234;9.326;2023-01-28T02:12:28;100346.03;;;5.77;65.80
6216;BME280;3141;49.234;9.326;2023-01-28T02:13:13;100343.19;;;5.80;66.07
6216;BME280;3141;49.234;9.326;2023-01-28T02:14:00;100341.41;;;5.80;65.94
6216;BME280;3141;49.234;9.326;2023-01-28T02:14:47;100337.25;;;5.78;65.54
6216;BME280;3141;49.234;9.326;2023-01-28T02:15:32;100343.19;;;5.80;66.01
6216;BME280;3141;49.234;9.326;2023-01-28T02:16:15;100350.06;;;5.82;65.67
6216;BME280;3141;49.234;9.326;2023-01-28T02:17:01;100339.63;;;5.81;66.11
6216;BME280;3141;49.234;9.326;2023-01-28T02:17:44;100339.75;;;5.79;66.01
6216;BME280;3141;49.234;9.326;2023-01-28T02:18:27;100341.31;;;5.82;66.09
6216;BME280;3141;49.234;9.326;2023-01-28T02:19:11;100337.00;;;5.81;65.81
6216;BME280;3141;49.234;9.326;2023-01-28T02:19:57;100342.06;;;5.84;65.76
6216;BME280;3141;49.234;9.326;2023-01-28T02:23:00;100339.13;;;5.76;65.76
6216;BME280;3141;49.234;9.326;2023-01-28T02:24:16;100338.78;;;5.80;65.61
6216;BME280;3141;49.234;9.326;2023-01-28T02:25:32;100340.28;;;5.84;65.60
6216;BME280;3141;49.234;9.326;2023-01-28T02:27:15;100345.66;;;5.83;65.04
6216;BME280;3141;49.234;9.326;2023-01-28T02:28:24;100341.25;;;5.71;66.32
6216;BME280;3141;49.234;9.326;2023-01-28T02:30:26;100345.53;;;5.72;66.51
6216;BME280;3141;49.234;9.326;2023-01-28T02:31:15;100339.63;;;5.81;65.70
6216;BME280;3141;49.234;9.326;2023-01-28T02:32:09;100345.00;;;5.79;65.83
6216;BME280;3141;49.234;9.326;2023-01-28T02:32:58;100341.13;;;5.72;66.36
6216;BME280;3141;49.234;9.326;2023-01-28T02:35:17;100341.63;;;5.77;66.23
6216;BME280;3141;49.234;9.326;2023-01-28T02:36:11;100345.66;;;5.83;65.92
6216;BME280;3141;49.234;9.326;2023-01-28T02:37:25;100337.88;;;5.81;66.59
6216;BME280;3141;49.234;9.326;2023-01-28T02:38:13;100340.50;;;5.69;66.72
6216;BME280;3141;49.234;9.326;2023-01-28T02:39:02;100337.88;;;5.69;66.83
6216;BME280;3141;49.234;9.326;2023-01-28T02:39:53;100344.06;;;5.68;67.51
6216;BME280;3141;49.234;9.326;2023-01-28T02:40:41;100340.94;;;5.63;67.91
6216;BME280;3141;49.234;9.326;2023-01-28T02:42:01;100338.81;;;5.68;67.78
6216;BME280;3141;49.234;9.326;2023-01-28T02:42:45;100342.69;;;5.75;67.40
6216;BME280;3141;49.234;9.326;2023-01-28T02:43:35;100344.56;;;5.73;67.45
6216;BME280;3141;49.234;9.326;2023-01-28T02:44:17;100345.19;;;5.76;67.46
6216;BME280;3141;49.234;9.326;2023-01-28T02:45:00;100339.56;;;5.70;67.33
6216;BME280;3141;49.234;9.326;2023-01-28T02:45:42;100340.78;;;5.77;67.33
6216;BME280;3141;49.234;9.326;2023-01-28T02:46:43;100342.78;;;5.73;67.71
6216;BME280;3141;49.234;9.326;2023-01-28T02:47:44;100344.41;;;5.63;67.97
6216;BME280;3141;49.234;9.326;2023-01-28T02:48:38;100340.19;;;5.61;68.05
6216;BME280;3141;49.234;9.326;2023-01-28T02:49:27;100340.41;;;5.58;67.95
6216;BME280;3141;49.234;9.326;2023-01-28T02:50:15;100345.34;;;5.62;67.77
6216;BME280;3141;49.234;9.326;2023-01-28T02:51:04;100343.34;;;5.66;68.12
6216;BME280;3141;49.234;9.326;2023-01-28T02:53:04;100343.94;;;5.69;67.97
6216;BME280;3141;49.234;9.326;2023-01-28T02:54:11;100350.78;;;5.72;67.63
6216;BME280;3141;49.234;9.326;2023-01-28T02:55:20;100342.81;;;5.61;68.23
6216;BME280;3141;49.234;9.326;2023-01-28T02:56:24;100345.66;;;5.58;68.32
6216;BME280;3141;49.234;9.326;2023-01-28T02:57:16;100346.41;;;5.60;68.76
6216;BME280;3141;49.234;9.326;2023-01-28T02:59:33;100348.63;;;5.53;68.89
6216;BME280;3141;49.234;9.326;2023-01-28T03:01:35;100345.56;;;5.59;68.45
6216;BME280;3141;49.234;9.326;2023-01-28T03:03:26;100346.50;;;5.58;68.42
6216;BME280;3141;49.234;9.326;2023-01-28T03:04:21;100352.28;;;5.63;68.42
6216;BME280;3141;49.234;9.326;2023-01-28T03:05:13;100355.28;;;5.70;68.27
6216;BME280;3141;49.234;9.326;2023-01-28T03:06:07;100350.50;;;5.64;67.92
6216;BME280;3141;49.234;9.326;2023-01-28T03:06:54;100353.22;;;5.62;68.39
6216;BME280;3141;49.234;9.326;2023-01-28T03:07:39;100352.91;;;5.67;68.41
6216;BME280;3141;49.234;9.326;2023-01-28T03:08:22;100352.38;;;5.62;68.29
6216;BME280;3141;49.234;9.326;2023-01-28T03:09:23;100354.16;;;5.49;68.37
6216;BME280;3141;49.234;9.326;2023-01-28T03:10:12;100352.63;;;5.46;68.25
6216;BME280;3141;49.234;9.326;2023-01-28T03:10:57;100354.91;;;5.51;68.57
6216;BME280;3141;49.234;9.326;2023-01-28T03:12:04;100351.88;;;5.57;68.25
6216;BME280;3141;49.234;9.326;2023-01-28T03:13:06;100355.50;;;5.67;67.75
6216;BME280;3141;49.234;9.326;2023-01-28T03:14:08;100353.41;;;5.72;67.14
6216;BME280;3141;49.234;9.326;2023-01-28T03:15:13;100356.56;;;5.64;67.27
6216;BME280;3141;49.234;9.326;2023-01-28T03:16:16;100349.75;;;5.62;67.16
6216;BME280;3141;49.234;9.326;2023-01-28T03:17:27;100351.00;;;5.69;67.58
6216;BME280;3141;49.234;9.326;2023-01-28T03:18:40;100354.56;;;5.68;66.99
6216;BME280;3141;49.234;9.326;2023-01-28T03:19:44;100353.84;;;5.66;67.28
6216;BME280;3141;49.234;9.326;2023-01-28T03:21:07;100360.75;;;5.67;67.19
6216;BME280;3141;49.234;9.326;2023-01-28T03:22:09;100358.88;;;5.69;67.51
6216;BME280;3141;49.234;9.326;2023-01-28T03:23:15;100360.13;;;5.76;67.44
6216;BME280;3141;49.234;9.326;2023-01-28T03:24:25;100364.75;;;5.60;67.88
6216;BME280;3141;49.234;9.326;2023-01-28T03:25:28;100355.50;;;5.67;67.76
6216;BME280;3141;49.234;9.326;2023-01-28T03:26:32;100360.56;;;5.57;68.02
6216;BME280;3141;49.234;9.326;2023-01-28T03:27:44;100355.88;;;5.50;68.71
6216;BME280;3141;49.234;9.326;2023-01-28T03:28:48;100363.50;;;5.65;68.43
6216;BME280;3141;49.234;9.326;2023-01-28T03:29:53;100369.34;;;5.81;67.80
6216;BME280;3141;49.234;9.326;2023-01-28T03:31:02;100365.69;;;5.84;67.67
6216;BME280;3141;49.234;9.326;2023-01-28T03:32:04;100366.91;;;5.78;67.82
6216;BME280;3141;49.234;9.326;2023-01-28T03:33:06;100359.69;;;5.69;67.75
6216;BME280;3141;49.234;9.326;2023-01-28T03:34:08;100369.34;;;5.81;67.92
6216;BME280;3141;49.234;9.326;2023-01-28T03:35:12;100372.78;;;5.82;67.53
6216;BME280;3141;49.234;9.326;2023-01-28T03:36:16;100365.44;;;5.87;67.36
6216;BME280;3141;49.234;9.326;2023-01-28T03:37:17;100365.69;;;5.84;67.30
6216;BME280;3141;49.234;9.326;2023-01-28T03:38:00;100365.78;;;5.82;67.40
6216;BME280;3141;49.234;9.326;2023-01-28T03:38:59;100367.53;;;5.82;67.68
6216;BME280;3141;49.234;9.326;2023-01-28T03:39:41;100371.13;;;5.81;68.09
6216;BME280;3141;49.234;9.326;2023-01-28T03:40:23;100372.28;;;5.90;67.89
6216;BME280;3141;49.234;9.326;2023-01-28T03:41:07;100366.69;;;5.94;67.71
6216;BME280;3141;49.234;9.326;2023-01-28T03:42:02;100375.41;;;5.95;67.61
6216;BME280;3141;49.234;9.326;2023-01-28T03:42:45;100368.72;;;5.78;67.99
6216;BME280;3141;49.234;9.326;2023-01-28T03:43:29;100368.81;;;5.76;69.03
6216;BME280;3141;49.234;9.326;2023-01-28T03:44:11;100371.88;;;5.83;68.52
6216;BME280;3141;49.234;9.326;2023-01-28T03:45:13;100373.63;;;5.95;68.44
6216;BME280;3141;49.234;9.326;2023-01-28T03:45:56;100365.09;;;6.04;68.16
6216;BME280;3141;49.234;9.326;2023-01-28T03:46:38;100381.69;;;6.05;68.31
6216;BME280;3141;49.234;9.326;2023-01-28T03:47:23;100368.91;;;6.00;68.16
6216;BME280;3141;49.234;9.326;2023-01-28T03:48:05;100376.66;;;6.02;68.26
6216;BME280;3141;49.234;9.326;2023-01-28T03:48:48;100377.94;;;5.96;68.95
6216;BME280;3141;49.234;9.326;2023-01-28T03:49:30;100368.59;;;5.92;69.26
6216;BME280;3141;49.234;9.326;2023-01-28T03:50:12;100369.53;;;5.91;69.27
6216;BME280;3141;49.234;9.326;2023-01-28T03:50:56;100377.06;;;5.96;69.17
6216;BME280;3141;49.234;9.326;2023-01-28T03:51:38;100375.22;;;5.85;69.53
6216;BME280;3141;49.234;9.326;2023-01-28T03:52:25;100376.69;;;5.89;69.62
6216;BME280;3141;49.234;9.326;2023-01-28T03:53:08;100376.69;;;5.89;69.88
6216;BME280;3141;49.234;9.326;2023-01-28T03:53:53;100375.66;;;5.92;69.86
6216;BME280;3141;49.234;9.326;2023-01-28T03:54:36;100378.16;;;5.93;69.97
6216;BME280;3141;49.234;9.326;2023-01-28T03:55:18;100381.28;;;5.98;69.56
6216;BME280;3141;49.234;9.326;2023-01-28T03:56:00;100381.41;;;5.97;69.58
6216;BME280;3141;49.234;9.326;2023-01-28T03:56:43;100381.94;;;5.89;70.20
6216;BME280;3141;49.234;9.326;2023-01-28T03:57:26;100376.78;;;5.88;70.15
6216;BME280;3141;49.234;9.326;2023-01-28T03:58:09;100377.41;;;5.91;69.77
6216;BME280;3141;49.234;9.326;2023-01-28T03:58:52;100376.06;;;5.85;70.04
6216;BME280;3141;49.234;9.326;2023-01-28T03:59:37;100384.84;;;5.97;69.94
6216;BME280;3141;49.234;9.326;2023-01-28T04:00:19;100383.19;;;5.96;70.58
6216;BME280;3141;49.234;9.326;2023-01-28T04:01:03;100387.03;;;6.03;69.96
6216;BME280;3141;49.234;9.326;2023-01-28T04:01:45;100380.31;;;5.99;70.14
6216;BME280;3141;49.234;9.326;2023-01-28T04:02:27;100387.25;;;6.00;70.33
6216;BME280;3141;49.234;9.326;2023-01-28T04:03:14;100381.72;;;5.92;70.60
6216;BME280;3141;49.234;9.326;2023-01-28T04:03:58;100387.06;;;5.91;70.57
6216;BME280;3141;49.234;9.326;2023-01-28T04:04:40;100393.03;;;5.93;71.14
6216;BME280;3141;49.234;9.326;2023-01-28T04:05:23;100391.03;;;5.96;70.35
6216;BME280;3141;49.234;9.326;2023-01-28T04:06:08;100391.31;;;6.04;70.58
6216;BME280;3141;49.234;9.326;2023-01-28T04:06:52;100392.91;;;6.07;70.45
6216;BME280;3141;49.234;9.326;2023-01-28T04:07:34;100388.38;;;6.09;70.40
6216;BME280;3141;49.234;9.326;2023-01-28T04:08:16;100391.13;;;6.07;70.58
6216;BME280;3141;49.234;9.326;2023-01-28T04:08:59;100391.31;;;6.04;71.01
6216;BME280;3141;49.234;9.326;2023-01-28T04:09:41;100389.66;;;6.03;70.76
6216;BME280;3141;49.234;9.326;2023-01-28T04:10:24;100391.56;;;6.01;70.84
6216;BME280;3141;49.234;9.326;2023-01-28T04:11:06;100384.88;;;5.72;72.15
6216;BME280;3141;49.234;9.326;2023-01-28T04:12:00;100384.16;;;5.70;73.12
6216;BME280;3141;49.234;9.326;2023-01-28T04:12:43;100387.72;;;5.69;73.69
6216;BME280;3141;49.234;9.326;2023-01-28T04:13:25;100382.53;;;5.80;73.20
6216;BME280;3141;49.234;9.326;2023-01-28T04:14:08;100387.28;;;5.88;72.98
6216;BME280;3141;49.234;9.326;2023-01-28T04:14:50;100390.88;;;5.87;72.61
6216;BME280;3141;49.234;9.326;2023-01-28T04:15:32;100389.81;;;5.89;72.36
6216;BME280;3141;49.234;9.326;2023-01-28T04:16:17;100387.56;;;5.96;72.36
6216;BME280;3141;49.234;9.326;2023-01-28T04:17:01;100391.50;;;5.90;72.40
6216;BME280;3141;49.234;9.326;2023-01-28T04:17:47;100386.03;;;5.93;72.24
6216;BME280;3141;49.234;9.326;2023-01-28T04:18:29;100387.81;;;5.93;72.46
6216;BME280;3141;49.234;9.326;2023-01-28T04:19:12;100383.19;;;5.96;72.36
6216;BME280;3141;49.234;9.326;2023-01-28T04:19:54;100388.94;;;6.01;71.97
6216;BME280;3141;49.234;9.326;2023-01-28T04:20:37;100390.63;;;6.02;72.14
6216;BME280;3141;49.234;9.326;2023-01-28T04:21:20;100378.16;;;5.80;73.13
6216;BME280;3141;49.234;9.326;2023-01-28T04:22:04;100391.16;;;5.82;73.26
6216;BME280;3141;49.234;9.326;2023-01-28T04:22:46;100387.63;;;5.83;73.36
6216;BME280;3141;49.234;9.326;2023-01-28T04:23:29;100390.13;;;5.84;73.01
6216;BME280;3141;49.234;9.326;2023-01-28T04:24:11;100393.03;;;5.93;73.01
6216;BME280;3141;49.234;9.326;2023-01-28T04:24:54;100390.09;;;5.97;73.06
6216;BME280;3141;49.234;9.326;2023-01-28T04:25:36;100390.81;;;5.99;72.61
6216;BME280;3141;49.234;9.326;2023-01-28T04:26:18;100397.75;;;6.00;72.28
6216;BME280;3141;49.234;9.326;2023-01-28T04:27:01;100397.53;;;6.03;72.39
6216;BME280;3141;49.234;9.326;2023-01-28T04:27:43;100398.56;;;6.01;72.55